Aviation Digital Data Service (ADDS)

Output produced by METARs form (2053 UTC 26 May 2017)
found at http://www.aviationweather.gov/adds/metars/
 
METAR text: EHGG 262025Z AUTO 05006KT 9999 FEW015CB 16/13 Q1021 NOSIG
Conditions at: EHGG (GRONINGEN/EELDE , NL) observed 2025 UTC 26 May 2017
Temperature: 16.0°C (61°F)
Dewpoint: 13.0°C (55°F) [RH = 82%]
Pressure (altimeter): 30.15 inches Hg (1021.0 mb)
Winds: from the NE (50 degrees) at 7 MPH (6 knots; 3.1 m/s)
Visibility: 6 or more miles (10+ km)
Ceiling: at least 12,000 feet AGL
Clouds: few clouds at 1500 feet AGL
Weather: no significant weather observed at this time